Time;durP1;ratioP1;P1;durP2;ratioP2;P2;SDS_P1;SDS_P2;PMS_P1;PMS_P2;Temp;Humidity;BMP_temperature;BMP_pressure;BME280_temperature;BME280_humidity;BME280_pressure;Samples;Min_cycle;Max_cycle;Signal;HPM_P1;HPM_P2
2024/02/19 00:01:00;;;;;;;1.60;1.50;;;;;;;7.51;100.00;98265.84;5036735;28;20414;-79
2024/02/19 00:03:27;;;;;;;1.80;1.50;;;;;;;7.45;100.00;98274.56;5036816;28;20441;-79
2024/02/19 00:05:54;;;;;;;1.48;1.38;;;;;;;7.57;100.00;98280.00;5037494;28;20489;-79
2024/02/19 00:08:22;;;;;;;2.60;1.40;;;;;;;7.61;100.00;98278.53;5036289;28;20435;-78
2024/02/19 00:10:48;;;;;;;1.92;1.70;;;;;;;7.54;100.00;98272.50;5037619;28;20410;-79
2024/02/19 00:13:14;;;;;;;2.13;1.45;;;;;;;7.47;100.00;98277.00;5037610;28;20418;-78
2024/02/19 00:15:41;;;;;;;2.25;1.23;;;;;;;7.56;100.00;98268.66;5035957;28;20409;-79
2024/02/19 00:18:07;;;;;;;1.40;1.30;;;;;;;7.67;100.00;98280.34;5037605;28;20577;-81
2024/02/19 00:20:33;;;;;;;1.40;1.30;;;;;;;7.70;100.00;98277.28;5036857;28;20421;-77
2024/02/19 00:22:59;;;;;;;1.30;1.20;;;;;;;7.59;100.00;98283.25;5039355;28;20399;-80
2024/02/19 00:25:27;;;;;;;1.42;1.33;;;;;;;7.52;100.00;98280.59;5037758;28;20460;-77
2024/02/19 00:27:53;;;;;;;1.95;1.33;;;;;;;7.56;100.00;98279.19;5034488;28;20426;-80
2024/02/19 00:30:19;;;;;;;1.30;1.20;;;;;;;7.54;100.00;98286.47;5036264;28;20406;-77
2024/02/19 00:32:45;;;;;;;1.63;1.20;;;;;;;7.53;100.00;98284.06;5035423;28;20753;-79
2024/02/19 00:35:11;;;;;;;1.30;1.20;;;;;;;7.47;100.00;98288.34;5034619;28;20403;-78
2024/02/19 00:37:37;;;;;;;2.30;1.30;;;;;;;7.54;100.00;98283.03;5037390;28;20466;-80
2024/02/19 00:40:05;;;;;;;1.95;1.10;;;;;;;7.64;100.00;98291.31;5041222;28;20391;-79
2024/02/19 00:42:32;;;;;;;1.10;1.00;;;;;;;7.53;100.00;98276.97;5051725;28;20391;-79
2024/02/19 00:44:58;;;;;;;1.30;1.20;;;;;;;7.51;100.00;98294.00;5044901;28;20419;-79
2024/02/19 00:47:25;;;;;;;2.20;1.13;;;;;;;7.45;100.00;98287.72;5035686;28;21047;-79
2024/02/19 00:49:51;;;;;;;1.23;1.13;;;;;;;7.49;100.00;98296.84;5038980;28;20399;-79
2024/02/19 00:52:17;;;;;;;1.33;1.20;;;;;;;7.43;100.00;98294.25;5039774;28;20407;-79
2024/02/19 00:54:44;;;;;;;3.40;1.17;;;;;;;7.53;100.00;98290.13;5040064;28;20457;-79
2024/02/19 00:57:10;;;;;;;1.30;1.20;;;;;;;7.55;100.00;98280.19;5040206;28;20399;-79
2024/02/19 00:59:38;;;;;;;2.00;1.27;;;;;;;7.67;100.00;98278.50;5039766;28;20399;-80
2024/02/19 01:02:04;;;;;;;1.10;1.10;;;;;;;7.58;100.00;98276.34;5039858;28;20434;-79
2024/02/19 01:04:30;;;;;;;3.03;1.20;;;;;;;7.49;100.00;98269.69;5039731;28;20446;-79
2024/02/19 01:06:56;;;;;;;0.90;0.90;;;;;;;7.54;100.00;98277.78;5039258;28;20426;-79
2024/02/19 01:09:22;;;;;;;1.02;1.02;;;;;;;7.47;100.00;98272.53;5039200;28;20394;-79
2024/02/19 01:11:48;;;;;;;1.20;1.10;;;;;;;7.49;100.00;98274.97;5039377;28;20406;-79
2024/02/19 01:14:14;;;;;;;1.60;1.20;;;;;;;7.54;100.00;98280.41;5039101;28;20399;-79
2024/02/19 01:16:42;;;;;;;1.30;1.20;;;;;;;7.49;100.00;98277.59;5038945;28;20484;-79
2024/02/19 01:19:08;;;;;;;1.23;1.13;;;;;;;7.47;100.00;98290.16;5039349;28;20461;-79
2024/02/19 01:21:34;;;;;;;1.20;1.10;;;;;;;7.44;100.00;98294.03;5038713;28;20483;-79
2024/02/19 01:24:00;;;;;;;1.20;1.10;;;;;;;7.43;100.00;98304.78;5039084;28;20418;-79
2024/02/19 01:26:26;;;;;;;1.17;1.08;;;;;;;7.55;100.00;98303.91;5034086;28;20759;-79
2024/02/19 01:28:52;;;;;;;1.05;0.95;;;;;;;7.51;100.00;98302.72;5019741;28;20942;-79
2024/02/19 01:31:19;;;;;;;1.40;1.30;;;;;;;7.49;100.00;98303.94;5019292;28;20440;-80
2024/02/19 01:33:46;;;;;;;2.13;1.10;;;;;;;7.60;100.00;98298.81;5020088;28;20411;-79
2024/02/19 01:36:13;;;;;;;1.20;1.10;;;;;;;7.62;100.00;98296.78;5019419;28;20396;-79
2024/02/19 01:38:41;;;;;;;1.27;1.17;;;;;;;7.63;100.00;98302.88;5019333;28;20405;-79
2024/02/19 01:41:07;;;;;;;1.35;1.13;;;;;;;7.55;100.00;98306.53;5020172;28;20472;-79
2024/02/19 01:43:33;;;;;;;1.70;1.23;;;;;;;7.67;100.00;98310.13;5019299;28;20412;-79
2024/02/19 01:46:00;;;;;;;1.25;1.15;;;;;;;7.54;100.00;98306.75;5018702;28;20396;-79
2024/02/19 01:48:26;;;;;;;1.85;1.20;;;;;;;7.50;100.00;98301.09;5018997;28;20470;-79
2024/02/19 01:50:54;;;;;;;1.70;1.25;;;;;;;7.51;100.00;98292.19;5019470;28;20397;-79
2024/02/19 01:53:23;;;;;;;1.75;1.40;;;;;;;7.63;100.00;98292.31;5019214;28;20401;-79
2024/02/19 01:55:49;;;;;;;1.25;1.15;;;;;;;7.61;100.00;98292.53;5018167;28;20795;-80
2024/02/19 01:58:16;;;;;;;2.20;1.38;;;;;;;7.54;100.00;98283.03;5018282;28;20401;-80
2024/02/19 02:00:42;;;;;;;1.90;1.40;;;;;;;7.59;100.00;98288.50;5017187;28;20411;-80
2024/02/19 02:03:11;;;;;;;3.07;1.60;;;;;;;7.58;100.00;98285.06;5018842;28;20848;-80
2024/02/19 02:05:37;;;;;;;3.00;1.37;;;;;;;7.58;100.00;98286.88;5026599;28;20401;-80
2024/02/19 02:08:06;;;;;;;2.20;1.40;;;;;;;7.67;100.00;98285.59;5019064;28;20401;-79
2024/02/19 02:10:32;;;;;;;2.53;1.30;;;;;;;7.76;100.00;98294.91;5020494;28;20400;-80
2024/02/19 02:12:58;;;;;;;2.15;1.45;;;;;;;7.68;100.00;98285.41;5021580;28;20464;-79
2024/02/19 02:15:24;;;;;;;5.38;1.50;;;;;;;7.77;100.00;98285.97;5018461;28;20494;-79
2024/02/19 02:17:50;;;;;;;1.58;1.40;;;;;;;7.73;100.00;98296.13;5019012;28;20397;-80
2024/02/19 02:20:16;;;;;;;1.75;1.40;;;;;;;7.70;100.00;98291.28;5019451;28;20404;-80
2024/02/19 02:22:43;;;;;;;2.25;1.60;;;;;;;7.59;100.00;98288.50;5018931;28;20428;-80
2024/02/19 02:25:11;;;;;;;4.07;1.67;;;;;;;7.69;100.00;98294.94;5019427;28;20412;-81
2024/02/19 02:27:38;;;;;;;1.65;1.35;;;;;;;7.59;100.00;98293.78;5019239;28;20401;-80
2024/02/19 02:30:08;;;;;;;1.90;1.60;;;;;;;7.58;100.00;98292.97;5019197;28;20403;-79
2024/02/19 02:32:34;;;;;;;2.88;1.60;;;;;;;7.60;100.00;98308.53;5018995;28;20401;-79
2024/02/19 02:35:01;;;;;;;7.28;2.08;;;;;;;7.51;100.00;98296.66;5019322;28;20918;-79
2024/02/19 02:37:27;;;;;;;3.50;2.10;;;;;;;7.47;100.00;98298.06;5020364;28;20707;-79
2024/02/19 02:39:54;;;;;;;4.80;2.70;;;;;;;7.48;100.00;98292.59;5018496;28;20400;-79
2024/02/19 02:42:20;;;;;;;8.18;2.88;;;;;;;7.52;100.00;98285.88;5017646;28;20436;-80
2024/02/19 02:44:47;;;;;;;6.68;2.90;;;;;;;7.48;100.00;98287.31;5016978;28;20423;-79
2024/02/19 02:47:14;;;;;;;7.05;2.80;;;;;;;7.58;100.00;98286.88;5017750;28;20401;-80
2024/02/19 02:49:40;;;;;;;10.05;3.25;;;;;;;7.49;100.00;98286.31;5017373;28;20420;-79
2024/02/19 02:52:06;;;;;;;7.63;2.78;;;;;;;7.42;100.00;98287.34;5017250;28;20404;-80
2024/02/19 02:54:33;;;;;;;9.35;3.22;;;;;;;7.36;100.00;98287.19;5017003;28;20431;-79
2024/02/19 02:56:59;;;;;;;8.10;3.30;;;;;;;7.35;100.00;98290.81;5017180;28;20401;-79
2024/02/19 02:59:25;;;;;;;6.38;3.20;;;;;;;7.36;100.00;98287.19;5017340;28;20459;-79
2024/02/19 03:01:53;;;;;;;6.40;3.22;;;;;;;7.32;100.00;98290.41;5017820;28;20454;-79
2024/02/19 03:04:19;;;;;;;6.60;3.43;;;;;;;7.54;100.00;98288.31;5023712;28;20440;-80
2024/02/19 03:06:45;;;;;;;8.68;3.47;;;;;;;7.57;100.00;98285.28;5034498;28;20389;-79
2024/02/19 03:09:11;;;;;;;13.00;3.53;;;;;;;7.60;100.00;98285.63;5031685;28;20397;-79
2024/02/19 03:11:37;;;;;;;8.65;3.50;;;;;;;7.51;100.00;98280.84;5015839;28;20401;-79
2024/02/19 03:14:03;;;;;;;10.90;4.20;;;;;;;7.44;100.00;98286.13;5016497;28;20506;-80
2024/02/19 03:16:29;;;;;;;7.85;3.58;;;;;;;7.41;100.00;98280.47;5015036;28;20401;-79
2024/02/19 03:18:57;;;;;;;10.67;4.27;;;;;;;7.40;100.00;98290.19;5016223;28;20881;-79
2024/02/19 03:21:23;;;;;;;10.82;3.97;;;;;;;7.39;100.00;98286.75;5015054;28;20841;-79
2024/02/19 03:23:53;;;;;;;7.90;4.28;;;;;;;7.46;100.00;98288.53;5015498;28;20455;-79
2024/02/19 03:26:23;;;;;;;11.88;4.47;;;;;;;7.41;100.00;98288.38;5015265;28;20409;-79
2024/02/19 03:28:49;;;;;;;10.55;3.92;;;;;;;7.37;100.00;98296.66;5015727;28;20405;-79
2024/02/19 03:31:15;;;;;;;9.60;4.07;;;;;;;7.54;100.00;98288.31;5016002;28;20575;-79
2024/02/19 03:33:42;;;;;;;11.27;4.07;;;;;;;7.50;100.00;98282.66;5015796;28;20419;-79
2024/02/19 03:36:11;;;;;;;10.82;3.85;;;;;;;7.63;100.00;98290.50;5015132;28;20446;-79
2024/02/19 03:38:37;;;;;;;8.10;3.80;;;;;;;7.63;100.00;98285.22;5015552;28;20403;-79
2024/02/19 03:41:04;;;;;;;9.52;4.00;;;;;;;7.64;100.00;98293.94;5015942;28;20483;-80
2024/02/19 03:43:30;;;;;;;7.65;4.00;;;;;;;7.61;100.00;98291.72;5015353;28;20499;-79
2024/02/19 03:45:56;;;;;;;10.93;4.22;;;;;;;7.51;100.00;98291.38;5015197;28;20766;-79
2024/02/19 03:48:23;;;;;;;8.75;3.75;;;;;;;7.68;100.00;98293.31;5016177;28;20877;-79
2024/02/19 03:50:49;;;;;;;9.85;3.90;;;;;;;7.61;100.00;98297.00;5015222;28;20458;-79
2024/02/19 03:53:16;;;;;;;12.38;4.60;;;;;;;7.47;100.00;98301.50;5014991;28;20404;-79
2024/02/19 03:55:43;;;;;;;9.13;4.03;;;;;;;7.49;100.00;98303.94;5015029;28;20415;-79
2024/02/19 03:58:09;;;;;;;9.07;4.45;;;;;;;7.60;100.00;98304.09;5016818;28;20568;-78
2024/02/19 04:00:35;;;;;;;10.75;4.32;;;;;;;7.47;100.00;98305.97;5015669;28;20405;-79
2024/02/19 04:03:01;;;;;;;9.68;4.47;;;;;;;7.49;100.00;98310.03;5014731;28;20446;-79
2024/02/19 04:05:28;;;;;;;9.75;4.45;;;;;;;7.56;100.00;98302.91;5014653;28;20862;-79
2024/02/19 04:07:54;;;;;;;10.88;4.93;;;;;;;7.54;100.00;98312.03;5015356;28;20392;-79
2024/02/19 04:10:21;;;;;;;12.67;4.97;;;;;;;7.53;100.00;98310.41;5015133;28;20435;-79
2024/02/19 04:12:48;;;;;;;9.80;4.45;;;;;;;7.78;100.00;98301.56;5014725;28;20408;-78
2024/02/19 04:15:14;;;;;;;8.57;4.53;;;;;;;7.85;100.00;98311.28;5015072;28;20417;-80
2024/02/19 04:17:40;;;;;;;10.97;4.67;;;;;;;7.76;100.00;98313.34;5018132;28;20429;-79
2024/02/19 04:20:07;;;;;;;10.23;4.15;;;;;;;7.67;100.00;98317.22;5035695;28;20397;-79
2024/02/19 04:22:33;;;;;;;10.77;4.38;;;;;;;7.63;100.00;98310.78;5030838;28;20420;-79
2024/02/19 04:25:00;;;;;;;8.07;4.28;;;;;;;7.75;100.00;98314.34;5019404;28;20424;-79
2024/02/19 04:27:27;;;;;;;9.30;4.30;;;;;;;7.69;100.00;98308.09;5019912;28;20400;-79
2024/02/19 04:29:53;;;;;;;8.23;3.90;;;;;;;7.63;100.00;98318.69;5023322;28;20408;-79
2024/02/19 04:32:20;;;;;;;6.72;3.58;;;;;;;7.57;100.00;98322.16;5031457;28;20405;-80
2024/02/19 04:34:46;;;;;;;6.85;3.25;;;;;;;7.53;100.00;98318.31;5036113;28;20447;-78
2024/02/19 04:37:14;;;;;;;6.03;3.47;;;;;;;7.48;100.00;98315.50;5038638;28;20435;-78
2024/02/19 04:39:40;;;;;;;6.53;3.23;;;;;;;7.55;100.00;98326.81;5040159;28;20477;-80
2024/02/19 04:42:06;;;;;;;8.32;4.45;;;;;;;7.54;100.00;98326.00;5027797;28;20774;-79
2024/02/19 04:44:33;;;;;;;11.10;4.37;;;;;;;7.45;100.00;98332.50;5022871;28;20857;-80
2024/02/19 04:47:00;;;;;;;11.77;5.10;;;;;;;7.41;100.00;98330.50;5025569;28;20403;-78
2024/02/19 04:49:27;;;;;;;12.98;5.75;;;;;;;7.53;100.00;98340.19;5038088;28;20774;-78
2024/02/19 04:51:53;;;;;;;10.70;5.30;;;;;;;7.41;100.00;98346.31;5038096;28;20458;-79
2024/02/19 04:54:19;;;;;;;8.70;5.28;;;;;;;7.50;100.00;98340.63;5038738;28;20442;-79
2024/02/19 04:56:46;;;;;;;10.70;5.10;;;;;;;7.50;100.00;98352.97;5042441;28;20482;-79
2024/02/19 04:59:12;;;;;;;10.32;5.45;;;;;;;7.49;100.00;98346.91;5041150;28;20760;-80
2024/02/19 05:01:40;;;;;;;14.93;5.70;;;;;;;7.38;100.00;98337.00;5038484;28;20525;-79
2024/02/19 05:04:06;;;;;;;14.30;6.25;;;;;;;7.28;100.00;98328.72;5039140;28;20838;-79
2024/02/19 05:06:32;;;;;;;17.90;7.57;;;;;;;7.26;100.00;98343.91;5037883;28;20763;-79
2024/02/19 05:08:58;;;;;;;21.00;7.70;;;;;;;7.19;100.00;98343.13;5038399;28;20426;-79
2024/02/19 05:11:24;;;;;;;14.10;6.65;;;;;;;7.12;100.00;98345.78;5038132;28;20406;-79
2024/02/19 05:13:51;;;;;;;16.33;6.97;;;;;;;7.12;100.00;98356.31;5021419;28;20407;-77
2024/02/19 05:16:17;;;;;;;19.50;8.18;;;;;;;7.29;100.00;98348.78;5034902;28;20621;-79
2024/02/19 05:18:45;;;;;;;19.15;7.78;;;;;;;7.34;100.00;98360.31;5028514;28;20417;-80
2024/02/19 05:21:11;;;;;;;18.02;7.82;;;;;;;7.48;100.00;98366.34;5019593;28;20765;-79
2024/02/19 05:23:37;;;;;;;19.08;6.93;;;;;;;7.31;100.00;98355.44;5019233;28;20468;-80
2024/02/19 05:26:04;;;;;;;18.08;7.85;;;;;;;7.36;100.00;98360.94;5035963;28;20399;-80
2024/02/19 05:28:32;;;;;;;22.10;8.23;;;;;;;7.34;100.00;98356.88;5039542;28;20434;-81
2024/02/19 05:30:58;;;;;;;21.88;8.30;;;;;;;7.51;100.00;98359.88;5039814;28;20427;-80
2024/02/19 05:33:24;;;;;;;13.45;6.53;;;;;;;7.32;100.00;98361.53;5036886;28;21186;-79
2024/02/19 05:35:52;;;;;;;15.70;7.07;;;;;;;7.23;100.00;98363.56;5034600;28;20391;-79
2024/02/19 05:38:18;;;;;;;19.38;7.78;;;;;;;7.26;100.00;98368.44;5027743;28;20404;-81
2024/02/19 05:40:44;;;;;;;25.88;7.53;;;;;;;7.28;100.00;98371.69;5039430;28;20397;-80
2024/02/19 05:43:10;;;;;;;17.92;7.95;;;;;;;7.44;100.00;98365.16;5042571;28;20796;-79
2024/02/19 05:45:36;;;;;;;19.23;6.97;;;;;;;7.36;100.00;98371.47;5038298;28;20430;-80
2024/02/19 05:48:03;;;;;;;19.30;7.60;;;;;;;7.36;100.00;98368.84;5036444;28;20415;-79
2024/02/19 05:50:30;;;;;;;18.75;8.00;;;;;;;7.29;100.00;98369.84;5037269;28;20895;-83
2024/02/19 05:52:57;;;;;;;19.63;7.53;;;;;;;7.29;100.00;98361.97;5035829;28;20491;-81
2024/02/19 05:55:24;;;;;;;18.58;7.10;;;;;;;7.22;100.00;98375.09;5034745;28;20411;-80
2024/02/19 05:57:50;;;;;;;22.60;7.85;;;;;;;7.23;100.00;98366.19;5037292;28;20411;-79
2024/02/19 06:00:16;;;;;;;22.90;7.43;;;;;;;7.18;100.00;98370.47;5038248;28;20475;-82
2024/02/19 06:02:43;;;;;;;22.53;7.50;;;;;;;7.41;100.00;98357.66;5037830;28;20800;-79
2024/02/19 06:05:10;;;;;;;22.83;7.25;;;;;;;7.47;100.00;98367.38;5036384;28;20411;-80
2024/02/19 06:07:36;;;;;;;18.33;7.33;;;;;;;7.35;100.00;98364.56;5036822;28;20721;-79
2024/02/19 06:10:04;;;;;;;18.92;6.78;;;;;;;7.37;100.00;98367.78;5035895;28;20395;-76
2024/02/19 06:12:30;;;;;;;15.13;6.63;;;;;;;7.21;100.00;98375.34;5032728;28;20721;-76
2024/02/19 06:14:56;;;;;;;18.10;6.97;;;;;;;7.31;100.00;98368.63;5032705;28;20407;-75
2024/02/19 06:17:22;;;;;;;18.02;6.95;;;;;;;7.26;100.00;98376.34;5033360;28;20759;-75
2024/02/19 06:19:49;;;;;;;18.52;6.75;;;;;;;7.30;100.00;98385.44;5033404;28;20414;-78
2024/02/19 06:22:15;;;;;;;19.70;7.17;;;;;;;7.24;100.00;98374.91;5035490;28;20411;-78
2024/02/19 06:24:41;;;;;;;13.75;6.07;;;;;;;7.29;100.00;98390.94;5037399;28;20426;-78
2024/02/19 06:27:08;;;;;;;23.37;7.47;;;;;;;7.20;100.00;98392.97;5037798;28;20456;-77
2024/02/19 06:29:34;;;;;;;13.63;5.95;;;;;;;7.15;100.00;98384.84;5034564;28;20407;-77
2024/02/19 06:32:01;;;;;;;21.88;7.25;;;;;;;7.34;100.00;98399.00;5034843;28;20399;-78
2024/02/19 06:34:27;;;;;;;13.75;6.28;;;;;;;7.25;100.00;98405.50;5034557;28;20403;-78
2024/02/19 06:36:54;;;;;;;17.98;7.40;;;;;;;7.24;100.00;98403.88;5033429;28;20888;-78
2024/02/19 06:39:20;;;;;;;16.20;6.28;;;;;;;7.18;100.00;98412.59;5034108;28;20408;-78
2024/02/19 06:41:46;;;;;;;17.13;6.47;;;;;;;7.15;100.00;98413.00;5033886;28;20391;-78
2024/02/19 06:44:14;;;;;;;15.73;6.38;;;;;;;7.13;100.00;98423.75;5033665;28;20828;-78
2024/02/19 06:46:40;;;;;;;20.77;6.88;;;;;;;7.19;100.00;98420.31;5033203;28;20482;-78
2024/02/19 06:49:06;;;;;;;25.10;7.07;;;;;;;7.15;100.00;98419.06;5033712;28;20395;-78
2024/02/19 06:51:32;;;;;;;21.35;7.15;;;;;;;7.07;100.00;98435.06;5016211;28;20403;-78
2024/02/19 06:53:59;;;;;;;15.70;7.20;;;;;;;7.24;100.00;98443.38;5033962;28;20506;-78
2024/02/19 06:56:25;;;;;;;16.75;6.68;;;;;;;7.29;100.00;98436.47;5034432;28;20403;-78
2024/02/19 06:58:51;;;;;;;22.15;6.80;;;;;;;7.25;100.00;98440.56;5033287;28;20819;-78
2024/02/19 07:01:18;;;;;;;15.98;6.50;;;;;;;7.22;100.00;98440.94;5032786;28;21177;-78
2024/02/19 07:03:44;;;;;;;14.20;5.70;;;;;;;7.21;100.00;98439.34;5029937;28;20457;-77
2024/02/19 07:06:11;;;;;;;14.77;5.95;;;;;;;7.23;100.00;98449.66;5033333;28;20841;-77
2024/02/19 07:08:37;;;;;;;12.43;5.30;;;;;;;7.24;100.00;98446.81;5046586;28;20401;-77
2024/02/19 07:11:03;;;;;;;10.35;5.40;;;;;;;7.26;100.00;98451.91;5038896;28;20407;-78
2024/02/19 07:13:29;;;;;;;13.68;5.38;;;;;;;7.26;100.00;98457.97;5038210;28;20438;-77
2024/02/19 07:15:55;;;;;;;16.38;5.82;;;;;;;7.31;100.00;98462.63;5045916;28;20405;-77
2024/02/19 07:18:24;;;;;;;12.02;4.70;;;;;;;7.20;100.00;98463.25;5040422;28;20480;-77
2024/02/19 07:20:51;;;;;;;17.90;5.32;;;;;;;7.25;100.00;98461.63;5043791;28;20402;-78
2024/02/19 07:23:17;;;;;;;14.50;4.80;;;;;;;7.33;100.00;98463.22;5040287;28;20478;-78
2024/02/19 07:25:44;;;;;;;11.35;4.28;;;;;;;7.37;100.00;98462.59;5040413;28;20502;-77
2024/02/19 07:28:10;;;;;;;14.25;4.90;;;;;;;7.29;100.00;98469.94;5041781;28;20418;-79
2024/02/19 07:30:38;;;;;;;12.70;4.27;;;;;;;7.25;100.00;98472.16;5041981;28;21776;-78
2024/02/19 07:33:04;;;;;;;10.73;3.95;;;;;;;7.35;100.00;98479.66;5044140;28;20394;-78
2024/02/19 07:35:32;;;;;;;10.95;3.60;;;;;;;7.27;100.00;98470.13;5040754;28;20405;-79
2024/02/19 07:37:58;;;;;;;11.13;3.60;;;;;;;7.28;100.00;98470.94;5043475;28;20400;-78
2024/02/19 07:40:24;;;;;;;8.00;3.10;;;;;;;7.31;100.00;98484.50;5042910;28;20415;-78
2024/02/19 07:42:50;;;;;;;7.45;2.78;;;;;;;7.37;100.00;98486.31;5044379;28;20399;-80
2024/02/19 07:45:17;;;;;;;13.93;3.80;;;;;;;7.17;100.00;98488.16;5041685;28;20876;-78
2024/02/19 07:47:43;;;;;;;8.52;3.20;;;;;;;7.36;100.00;98489.19;5043517;28;20414;-78
2024/02/19 07:50:10;;;;;;;12.68;3.20;;;;;;;7.28;100.00;98495.47;5043287;28;20399;-79
2024/02/19 07:52:37;;;;;;;8.17;3.10;;;;;;;7.28;100.00;98495.47;5048053;28;20491;-79
2024/02/19 07:55:05;;;;;;;9.83;2.70;;;;;;;7.24;100.00;98494.22;5038371;28;20494;-79
2024/02/19 07:57:31;;;;;;;9.30;2.90;;;;;;;7.22;100.00;98505.97;5050218;28;20389;-79
2024/02/19 07:59:57;;;;;;;4.60;2.42;;;;;;;7.35;100.00;98519.97;5037640;28;20417;-78
2024/02/19 08:02:23;;;;;;;7.03;2.67;;;;;;;7.43;100.00;98512.88;5038416;28;20895;-79
2024/02/19 08:04:50;;;;;;;7.20;2.83;;;;;;;7.49;100.00;98512.88;5041415;28;20426;-79
2024/02/19 08:07:16;;;;;;;6.82;2.63;;;;;;;7.64;100.00;98513.47;5040371;28;20402;-79
2024/02/19 08:09:43;;;;;;;4.05;2.10;;;;;;;7.60;100.00;98519.34;5032863;28;20407;-79
2024/02/19 08:12:09;;;;;;;5.28;2.40;;;;;;;7.52;100.00;98524.84;5041450;28;20406;-79
2024/02/19 08:14:36;;;;;;;5.95;2.10;;;;;;;7.39;100.00;98520.34;5038846;28;20403;-79
2024/02/19 08:17:02;;;;;;;5.90;2.50;;;;;;;7.50;100.00;98519.75;5047011;28;20422;-80
2024/02/19 08:19:28;;;;;;;3.67;1.98;;;;;;;7.51;100.00;98518.75;5046025;28;20410;-79
2024/02/19 08:21:57;;;;;;;5.57;2.22;;;;;;;7.57;100.00;98525.84;5047347;28;20778;-79
2024/02/19 08:24:24;;;;;;;2.95;1.80;;;;;;;7.50;100.00;98530.31;5041878;28;20415;-79
2024/02/19 08:26:51;;;;;;;9.43;2.20;;;;;;;7.44;100.00;98533.75;5036806;28;20903;-80
2024/02/19 08:29:17;;;;;;;4.38;2.10;;;;;;;7.56;100.00;98533.94;5040191;28;20502;-79
2024/02/19 08:31:44;;;;;;;3.50;1.90;;;;;;;7.53;100.00;98539.59;5051775;28;20412;-79
2024/02/19 08:34:10;;;;;;;6.07;2.20;;;;;;;7.60;100.00;98540.41;5043886;28;20522;-79
2024/02/19 08:36:37;;;;;;;5.25;2.40;;;;;;;7.47;100.00;98543.06;5046173;28;20398;-79
2024/02/19 08:39:03;;;;;;;4.30;2.30;;;;;;;7.55;100.00;98546.31;5055903;28;20677;-79
2024/02/19 08:41:31;;;;;;;4.82;1.92;;;;;;;7.57;100.00;98543.47;5039066;28;20464;-79
2024/02/19 08:43:58;;;;;;;7.00;2.20;;;;;;;7.49;100.00;98555.03;5036771;28;20411;-79
2024/02/19 08:46:25;;;;;;;7.95;2.15;;;;;;;7.44;100.00;98552.19;5039087;28;20757;-79
2024/02/19 08:48:53;;;;;;;8.05;2.35;;;;;;;7.39;100.00;98558.06;5052679;28;20403;-79
2024/02/19 08:51:19;;;;;;;6.07;2.10;;;;;;;7.75;100.00;98551.56;5048840;28;20397;-79
2024/02/19 08:53:46;;;;;;;6.50;1.98;;;;;;;7.60;100.00;98549.13;5047809;28;20407;-80
2024/02/19 08:56:12;;;;;;;5.97;2.10;;;;;;;7.64;100.00;98554.81;5037329;28;20402;-79
2024/02/19 08:58:38;;;;;;;4.13;2.00;;;;;;;7.57;100.00;98564.56;5035105;28;20410;-79
2024/02/19 09:01:10;;;;;;;6.18;2.25;;;;;;;7.52;100.00;98567.00;5038548;28;20403;-79
2024/02/19 09:03:36;;;;;;;3.00;1.90;;;;;;;7.46;100.00;98567.78;5047064;28;20749;-78
2024/02/19 09:06:03;;;;;;;4.95;1.90;;;;;;;7.36;100.00;98579.53;5046910;28;20430;-79
2024/02/19 09:08:29;;;;;;;5.47;2.08;;;;;;;7.54;100.00;98567.56;5040439;28;20407;-78
2024/02/19 09:10:56;;;;;;;5.75;1.92;;;;;;;7.62;100.00;98568.19;5047391;28;20433;-79
2024/02/19 09:13:22;;;;;;;8.27;2.35;;;;;;;7.55;100.00;98572.66;5042147;28;20391;-80
2024/02/19 09:15:48;;;;;;;5.63;2.00;;;;;;;7.59;100.00;98578.34;5052340;28;20457;-79
2024/02/19 09:18:15;;;;;;;4.57;1.60;;;;;;;7.73;100.00;98578.13;5044309;28;20482;-80
2024/02/19 09:20:41;;;;;;;5.25;2.17;;;;;;;7.94;100.00;98568.38;5044498;28;20906;-80
2024/02/19 09:23:08;;;;;;;3.72;1.98;;;;;;;8.03;100.00;98570.59;5049347;28;20402;-80
2024/02/19 09:25:34;;;;;;;5.90;2.20;;;;;;;8.17;100.00;98566.09;5058417;28;20415;-79
2024/02/19 09:28:00;;;;;;;3.85;1.67;;;;;;;8.24;100.00;98571.38;5056897;28;20409;-79
2024/02/19 09:30:27;;;;;;;2.50;1.50;;;;;;;8.32;100.00;98574.63;5050074;28;20887;-81
2024/02/19 09:32:53;;;;;;;4.50;2.00;;;;;;;8.58;100.00;98578.19;5045933;28;20404;-82
2024/02/19 09:35:20;;;;;;;4.55;2.00;;;;;;;8.61;100.00;98561.94;5057543;28;20991;-80
2024/02/19 09:37:49;;;;;;;3.85;1.90;;;;;;;8.59;100.00;98559.50;5052998;28;20399;-79
2024/02/19 09:40:16;;;;;;;5.47;1.97;;;;;;;8.86;100.00;98554.94;5041395;28;20755;-77
2024/02/19 09:42:47;;;;;;;3.88;2.00;;;;;;;8.76;100.00;98554.56;5053615;28;20429;-80
2024/02/19 09:45:13;;;;;;;5.35;1.67;;;;;;;8.76;100.00;98568.56;5058167;28;20411;-79
2024/02/19 09:47:43;;;;;;;2.88;1.70;;;;;;;8.68;100.00;98560.06;5050603;28;20426;-80
2024/02/19 09:50:11;;;;;;;6.72;1.90;;;;;;;8.70;100.00;98564.13;5042476;28;20398;-80
2024/02/19 09:52:41;;;;;;;7.97;2.23;;;;;;;8.66;100.00;98570.03;5058816;28;20390;-79
2024/02/19 09:55:10;;;;;;;3.90;1.80;;;;;;;8.78;100.00;98569.19;5057198;28;20407;-78
2024/02/19 09:57:36;;;;;;;5.45;2.00;;;;;;;8.63;100.00;98575.75;5042067;28;20522;-79
2024/02/19 10:00:04;;;;;;;6.18;2.22;;;;;;;8.58;100.00;98573.72;5053397;28;20402;-79
2024/02/19 10:02:30;;;;;;;4.45;1.90;;;;;;;8.67;100.00;98593.56;5050969;28;20837;-79
2024/02/19 10:04:59;;;;;;;5.70;2.20;;;;;;;8.74;100.00;98594.34;5052666;28;20508;-79
2024/02/19 10:07:25;;;;;;;5.25;2.08;;;;;;;8.75;100.00;98588.06;5050262;28;20739;-79
2024/02/19 10:09:53;;;;;;;6.07;1.92;;;;;;;8.71;100.00;98586.06;5052032;28;20393;-78
2024/02/19 10:12:19;;;;;;;7.87;2.10;;;;;;;8.49;100.00;98585.53;5047564;28;20407;-79
2024/02/19 10:14:45;;;;;;;5.53;2.20;;;;;;;8.45;100.00;98603.59;5052603;28;20399;-79
2024/02/19 10:17:12;;;;;;;4.43;1.98;;;;;;;8.45;100.00;98600.97;5038328;28;20427;-79
2024/02/19 10:19:38;;;;;;;9.10;2.47;;;;;;;8.71;100.00;98600.06;5047858;28;20449;-79
2024/02/19 10:22:05;;;;;;;5.05;2.00;;;;;;;8.80;100.00;98603.25;5047980;28;20410;-79
2024/02/19 10:24:32;;;;;;;6.75;2.22;;;;;;;8.88;100.00;98587.19;5057089;28;20421;-76
2024/02/19 10:26:59;;;;;;;6.55;2.30;;;;;;;8.97;100.00;98593.84;5049763;28;20406;-79
2024/02/19 10:29:26;;;;;;;5.63;1.90;;;;;;;9.10;100.00;98587.69;5047342;28;20400;-79
2024/02/19 10:31:52;;;;;;;4.95;1.80;;;;;;;9.03;100.00;98602.75;5045468;28;20430;-79
2024/02/19 10:34:18;;;;;;;10.80;2.20;;;;;;;9.17;100.00;98599.03;5040094;28;20478;-79
2024/02/19 10:36:49;;;;;;;6.20;1.92;;;;;;;9.16;100.00;98605.34;5044623;28;20393;-79
2024/02/19 10:39:15;;;;;;;8.90;1.90;;;;;;;9.04;100.00;98604.38;5057746;28;20485;-80
2024/02/19 10:41:41;;;;;;;3.67;1.60;;;;;;;8.92;100.00;98615.63;5048377;28;20803;-81
2024/02/19 10:44:09;;;;;;;7.03;1.83;;;;;;;8.96;100.00;98616.00;5048931;28;20441;-81
2024/02/19 10:46:36;;;;;;;6.25;2.08;;;;;;;8.92;100.00;98612.16;5048743;28;20489;-84
2024/02/19 10:49:03;;;;;;;8.60;2.20;;;;;;;8.85;100.00;98614.03;5033276;28;20490;-77
2024/02/19 10:51:29;;;;;;;8.17;1.90;;;;;;;8.90;100.00;98609.72;5042036;28;20756;-80
2024/02/19 10:54:00;;;;;;;4.80;1.70;;;;;;;9.00;100.00;98617.22;5041807;28;20441;-79
2024/02/19 10:56:34;;;;;;;5.68;1.90;;;;;;;9.24;100.00;98607.75;5042872;28;20751;-80
2024/02/19 10:59:01;;;;;;;4.88;2.00;;;;;;;9.49;100.00;98592.72;5038458;28;20399;-77
2024/02/19 11:01:41;;;;;;;6.47;1.80;;;;;;;9.36;100.00;98594.66;5036692;28;20510;-78
2024/02/19 11:04:11;;;;;;;5.25;1.98;;;;;;;9.60;100.00;98589.41;5036355;28;20415;-78
2024/02/19 11:06:39;;;;;;;9.32;2.20;;;;;;;9.58;100.00;98580.06;5035955;28;20391;-79
2024/02/19 11:09:12;;;;;;;5.35;2.05;;;;;;;9.46;100.00;98587.06;5036765;28;20891;-80
2024/02/19 11:11:46;;;;;;;6.05;1.80;;;;;;;9.43;100.00;98588.28;5035533;28;20864;-77
2024/02/19 11:14:14;;;;;;;8.95;2.10;;;;;;;9.37;100.00;98575.94;5024846;28;20799;-78
2024/02/19 11:16:42;;;;;;;7.25;2.15;;;;;;;9.34;100.00;98571.06;5033820;28;20442;-77
2024/02/19 11:19:08;;;;;;;4.47;1.73;;;;;;;9.38;100.00;98568.84;5033272;28;20391;-78
2024/02/19 11:21:34;;;;;;;5.95;2.10;;;;;;;9.52;100.00;98560.59;5033355;28;20410;-78
2024/02/19 11:24:01;;;;;;;6.57;1.77;;;;;;;9.73;100.00;98555.94;5023169;28;20401;-77
2024/02/19 11:26:28;;;;;;;5.40;2.47;;;;;;;9.89;100.00;98558.03;5013535;28;20408;-77
2024/02/19 11:28:54;;;;;;;4.45;1.70;;;;;;;10.15;100.00;98559.63;5014749;28;20428;-77